createdAt,value
2023-01-20T00:00:24.087Z,14.60
2023-01-20T00:05:26.821Z,16.17
2023-01-20T00:10:30.827Z,15.83
2023-01-20T00:15:33.508Z,18.63
2023-01-20T00:20:36.226Z,14.50
2023-01-20T00:25:40.453Z,18.20
2023-01-20T00:30:43.361Z,15.37
2023-01-20T00:35:46.109Z,18.80
2023-01-20T00:40:55.966Z,16.37
2023-01-20T00:45:58.694Z,18.70
2023-01-20T00:51:01.623Z,16.10
2023-01-20T00:56:06.321Z,14.63
2023-01-20T01:01:09.069Z,13.93
2023-01-20T01:06:15.536Z,15.90
2023-01-20T01:11:19.763Z,16.17
2023-01-20T01:16:22.519Z,15.23
2023-01-20T01:21:25.256Z,16.80
2023-01-20T01:26:29.257Z,17.47
2023-01-20T01:31:31.950Z,20.80
2023-01-20T01:36:34.648Z,15.73
2023-01-20T01:41:38.703Z,15.30
2023-01-20T01:46:42.145Z,14.67
2023-01-20T01:51:49.177Z,15.90
2023-01-20T01:56:53.755Z,17.80
2023-01-20T02:01:56.963Z,16.00
2023-01-20T02:07:04.470Z,16.60
2023-01-20T02:12:12.436Z,15.10
2023-01-20T02:17:22.020Z,15.67
2023-01-20T02:22:35.590Z,14.23
2023-01-20T02:28:06.389Z,16.53
2023-01-20T02:33:22.561Z,16.63
2023-01-20T02:38:31.886Z,17.87
2023-01-20T02:43:39.498Z,16.53
2023-01-20T02:48:49.043Z,15.97
2023-01-20T02:53:55.966Z,17.10
2023-01-20T02:59:01.956Z,16.60
2023-01-20T03:04:09.500Z,17.87
2023-01-20T03:09:16.837Z,17.90
2023-01-20T03:14:19.926Z,19.10
2023-01-20T03:19:23.936Z,17.80
2023-01-20T03:24:29.892Z,20.40
2023-01-20T03:29:32.591Z,17.80
2023-01-20T03:34:39.452Z,21.20
2023-01-20T03:39:42.220Z,19.67
2023-01-20T03:44:57.072Z,20.27
2023-01-20T03:50:07.587Z,20.50
2023-01-20T03:55:15.284Z,22.57
2023-01-20T04:00:21.019Z,19.47
2023-01-20T04:05:26.409Z,25.57
2023-01-20T04:10:39.499Z,21.50
2023-01-20T04:15:48.881Z,21.37
2023-01-20T04:20:59.714Z,20.47
2023-01-20T04:26:09.985Z,22.97
2023-01-20T04:31:29.199Z,21.90
2023-01-20T04:36:47.356Z,24.77
2023-01-20T04:41:55.500Z,35.93
2023-01-20T04:47:00.358Z,29.40
2023-01-20T04:52:07.054Z,27.23
2023-01-20T04:57:17.626Z,26.07
2023-01-20T05:02:24.998Z,28.37
2023-01-20T05:07:41.909Z,27.50
2023-01-20T05:12:51.687Z,29.07
2023-01-20T05:17:58.614Z,30.07
2023-01-20T05:23:10.201Z,39.17
2023-01-20T05:28:17.438Z,38.00
2023-01-20T05:33:25.001Z,56.40
2023-01-20T05:38:41.029Z,31.60
2023-01-20T05:43:49.879Z,31.93
2023-01-20T05:48:54.973Z,30.53
2023-01-20T05:54:08.500Z,32.67
2023-01-20T05:59:17.758Z,35.97
2023-01-20T06:04:23.089Z,30.67
2023-01-20T06:09:52.286Z,30.13
2023-01-20T06:20:37.805Z,36.33
2023-01-20T06:26:02.464Z,32.83
2023-01-20T06:31:07.135Z,31.57
2023-01-20T06:36:26.768Z,30.77
2023-01-20T06:41:39.123Z,29.50
2023-01-20T06:46:46.753Z,30.47
2023-01-20T06:51:57.417Z,28.30
2023-01-20T06:57:06.168Z,31.20
2023-01-20T07:02:13.343Z,34.30
2023-01-20T07:07:16.120Z,31.00
2023-01-20T07:12:20.075Z,30.37
2023-01-20T07:17:22.742Z,31.83
2023-01-20T07:22:25.504Z,29.27
2023-01-20T07:27:29.465Z,31.30
2023-01-20T07:32:32.125Z,32.47
2023-01-20T07:37:35.335Z,30.17
2023-01-20T07:42:39.691Z,31.40
2023-01-20T07:47:42.470Z,35.20
2023-01-20T07:52:45.151Z,32.10
2023-01-20T07:57:50.637Z,33.43
2023-01-20T08:02:53.265Z,36.33
2023-01-20T08:07:55.945Z,31.63
2023-01-20T08:13:00.387Z,35.87
2023-01-20T08:18:03.062Z,31.73
2023-01-20T08:23:05.821Z,35.57
2023-01-20T08:28:09.823Z,33.53
2023-01-20T08:33:12.509Z,39.23
2023-01-20T08:38:16.198Z,39.60
2023-01-20T08:43:20.179Z,38.13
2023-01-20T08:48:22.816Z,43.40
2023-01-20T08:53:25.700Z,33.13
2023-01-20T08:58:30.891Z,31.87
2023-01-20T09:03:37.333Z,32.77
2023-01-20T09:08:45.131Z,30.30
2023-01-20T09:13:52.478Z,37.53
2023-01-20T09:18:59.315Z,31.47
2023-01-20T09:24:02.642Z,36.47
2023-01-20T09:29:12.940Z,32.97
2023-01-20T09:34:30.471Z,30.70
2023-01-20T09:39:52.836Z,34.43
2023-01-20T09:45:26.606Z,37.43
2023-01-20T09:51:01.976Z,31.63
2023-01-20T09:56:12.528Z,34.03
2023-01-20T10:01:21.930Z,34.83
2023-01-20T10:06:31.609Z,33.57
2023-01-20T10:11:38.810Z,34.50
2023-01-20T10:16:49.414Z,36.93
2023-01-20T10:21:54.921Z,33.97
2023-01-20T10:27:02.415Z,33.50
2023-01-20T10:32:12.050Z,45.17
2023-01-20T10:37:15.705Z,38.03
2023-01-20T10:42:19.701Z,34.93
2023-01-20T10:47:38.765Z,37.17
2023-01-20T10:52:51.137Z,37.90
2023-01-20T10:57:57.962Z,35.13
2023-01-20T11:03:06.137Z,30.93
2023-01-20T11:08:15.166Z,33.50
2023-01-20T11:13:18.115Z,32.83
2023-01-20T11:18:30.659Z,30.17
2023-01-20T11:23:39.879Z,32.17
2023-01-20T11:28:50.404Z,34.83
2023-01-20T11:33:59.675Z,41.97
2023-01-20T11:39:02.378Z,39.70
2023-01-20T11:44:07.709Z,43.77
2023-01-20T11:49:21.957Z,42.00
2023-01-20T11:54:26.937Z,38.97
2023-01-20T11:59:31.831Z,38.00
2023-01-20T12:05:09.294Z,40.73
2023-01-20T12:10:17.621Z,40.90
2023-01-20T12:15:22.737Z,37.67
2023-01-20T12:20:35.438Z,42.63
2023-01-20T12:25:49.951Z,40.97
2023-01-20T12:30:59.859Z,43.00
2023-01-20T12:36:36.812Z,50.40
2023-01-20T12:42:16.043Z,39.83
2023-01-20T12:47:32.335Z,51.50
2023-01-20T12:52:49.581Z,47.30
2023-01-20T12:58:01.626Z,49.10
2023-01-20T13:03:50.535Z,44.93
2023-01-20T13:09:03.782Z,48.20
2023-01-20T13:14:13.390Z,54.63
2023-01-20T13:19:20.589Z,48.73
2023-01-20T13:24:29.263Z,43.97
2023-01-20T13:29:55.209Z,47.30
2023-01-20T13:34:58.675Z,55.27
2023-01-20T13:40:02.814Z,46.20
2023-01-20T13:45:22.117Z,55.83
2023-01-20T13:50:27.391Z,50.40
2023-01-20T13:55:32.037Z,50.73
2023-01-20T14:00:34.667Z,47.87
2023-01-20T14:05:37.578Z,50.60
2023-01-20T14:10:41.607Z,49.27
2023-01-20T14:15:44.446Z,44.23
2023-01-20T14:21:03.292Z,47.50
2023-01-20T14:26:13.146Z,52.80
2023-01-20T14:31:35.243Z,53.03
2023-01-20T14:36:38.166Z,45.50
2023-01-20T14:41:49.710Z,50.50
2023-01-20T14:46:54.597Z,48.77
2023-01-20T14:51:57.889Z,48.50
2023-01-20T14:57:13.454Z,49.13
2023-01-20T15:02:27.211Z,49.13
2023-01-20T15:07:30.865Z,47.30
2023-01-20T15:12:54.389Z,53.60
2023-01-20T15:18:17.192Z,52.70
2023-01-20T15:23:32.957Z,49.23
2023-01-20T15:28:38.873Z,54.03
2023-01-20T15:33:41.713Z,53.10
2023-01-20T15:38:44.374Z,47.00
2023-01-20T15:43:49.147Z,60.10
2023-01-20T15:48:51.780Z,54.80
2023-01-20T15:53:54.426Z,56.17
2023-01-20T15:58:58.845Z,58.07
2023-01-20T16:04:01.571Z,54.33
2023-01-20T16:09:16.225Z,54.00
2023-01-20T16:14:20.259Z,60.57
2023-01-20T16:19:22.942Z,55.63
2023-01-20T16:24:25.848Z,58.60
2023-01-20T16:29:29.878Z,55.13
2023-01-20T16:34:32.542Z,48.40
2023-01-20T16:39:35.230Z,55.40
2023-01-20T16:44:39.748Z,53.63
2023-01-20T16:49:42.430Z,47.33
2023-01-20T16:54:45.254Z,50.20
2023-01-20T16:59:49.283Z,52.57
2023-01-20T17:04:52.177Z,47.57
2023-01-20T17:09:55.781Z,41.80
2023-01-20T17:15:00.035Z,38.70
2023-01-20T17:20:02.709Z,45.47
2023-01-20T17:25:06.588Z,40.43
2023-01-20T17:30:11.915Z,39.63
2023-01-20T17:35:14.769Z,36.40
2023-01-20T17:40:17.902Z,37.60
2023-01-20T17:45:22.232Z,36.57
2023-01-20T17:50:24.963Z,38.67
2023-01-20T17:55:27.640Z,39.40
2023-01-20T18:00:31.604Z,39.03
2023-01-20T18:05:35.788Z,34.60
2023-01-20T18:10:38.493Z,34.87
2023-01-20T18:15:42.808Z,37.77
2023-01-20T18:20:45.630Z,36.93
2023-01-20T18:25:53.600Z,39.40
2023-01-20T18:31:03.050Z,35.57
2023-01-20T18:36:06.935Z,39.00
2023-01-20T18:41:10.567Z,35.13
2023-01-20T18:46:14.829Z,30.10
2023-01-20T18:51:21.493Z,34.37
2023-01-20T18:56:25.250Z,45.37
2023-01-20T19:01:32.365Z,50.33
2023-01-20T19:06:38.728Z,50.73
2023-01-20T19:11:43.259Z,47.93
2023-01-20T19:16:49.399Z,47.93
2023-01-20T19:21:52.787Z,45.30
2023-01-20T19:26:55.608Z,40.30
2023-01-20T19:31:59.673Z,39.27
2023-01-20T19:37:02.743Z,38.33
2023-01-20T19:42:05.502Z,43.20
2023-01-20T19:47:09.657Z,36.77
2023-01-20T19:52:12.582Z,35.70
2023-01-20T19:57:15.904Z,36.90
2023-01-20T20:02:20.309Z,35.60
2023-01-20T20:07:23.471Z,35.47
2023-01-20T20:12:26.573Z,33.63
2023-01-20T20:17:31.098Z,34.23
2023-01-20T20:22:33.788Z,34.83
2023-01-20T20:27:36.507Z,39.23
2023-01-20T20:32:43.872Z,28.80
2023-01-20T20:37:47.774Z,36.00
2023-01-20T20:42:50.848Z,36.17
2023-01-20T20:47:54.907Z,37.27
2023-01-20T20:52:57.795Z,33.77
2023-01-20T20:58:00.535Z,36.63
2023-01-20T21:03:06.787Z,39.37
2023-01-20T21:08:09.574Z,35.30
2023-01-20T21:13:12.665Z,41.50
2023-01-20T21:18:16.731Z,41.23
2023-01-20T21:23:19.364Z,37.53
2023-01-20T21:28:22.145Z,37.83
2023-01-20T21:33:26.436Z,38.17
2023-01-20T21:38:29.190Z,36.63
2023-01-20T21:43:50.327Z,35.77
2023-01-20T21:49:12.191Z,34.03
2023-01-20T21:54:14.889Z,30.80
2023-01-20T21:59:17.717Z,33.13
2023-01-20T22:04:21.987Z,36.80
2023-01-20T22:09:30.704Z,34.50
2023-01-20T22:14:38.793Z,35.63
2023-01-20T22:19:48.853Z,37.97
2023-01-20T22:24:56.366Z,38.00
2023-01-20T22:30:09.159Z,43.00
2023-01-20T22:36:14.583Z,47.70
2023-01-20T22:41:26.738Z,50.43
2023-01-20T22:46:43.626Z,42.03
2023-01-20T22:51:55.827Z,47.33
2023-01-20T22:57:18.265Z,45.57
2023-01-20T23:02:29.743Z,41.40
2023-01-20T23:07:42.478Z,37.30
2023-01-20T23:12:45.558Z,33.93
2023-01-20T23:17:49.433Z,36.03
2023-01-20T23:22:53.793Z,34.90
2023-01-20T23:27:59.969Z,31.57
2023-01-20T23:33:03.216Z,28.67
2023-01-20T23:38:15.736Z,29.60
2023-01-20T23:43:22.389Z,30.70
2023-01-20T23:48:27.570Z,32.17
2023-01-20T23:53:38.382Z,28.27
